createdAt,value
2019-01-20T00:00:19.466Z,12.00
2019-01-20T00:01:19.759Z,12.00
2019-01-20T00:02:19.522Z,12.00
2019-01-20T00:03:19.447Z,12.00
2019-01-20T00:04:19.435Z,12.00
2019-01-20T00:05:19.413Z,12.00
2019-01-20T00:06:19.402Z,12.00
2019-01-20T00:07:19.394Z,12.00
2019-01-20T00:08:19.420Z,12.00
2019-01-20T00:09:19.373Z,12.00
2019-01-20T00:10:19.363Z,12.00
2019-01-20T00:11:19.352Z,12.00
2019-01-20T00:12:19.341Z,12.00
2019-01-20T00:13:19.342Z,12.00
2019-01-20T00:14:19.844Z,12.00
2019-01-20T00:15:19.313Z,12.00
2019-01-20T00:16:19.301Z,12.00
2019-01-20T00:17:19.295Z,12.00
2019-01-20T00:18:19.284Z,12.00
2019-01-20T00:19:19.280Z,12.00
2019-01-20T00:20:21.162Z,12.00
2019-01-20T00:21:19.559Z,12.00
2019-01-20T00:22:19.240Z,12.00
2019-01-20T00:23:19.244Z,12.00
2019-01-20T00:24:19.230Z,12.00
2019-01-20T00:25:19.214Z,12.00
2019-01-20T00:26:19.343Z,12.00
2019-01-20T00:27:19.194Z,12.00
2019-01-20T00:28:19.481Z,12.00
2019-01-20T00:29:19.170Z,12.00
2019-01-20T00:30:19.158Z,12.00
2019-01-20T00:31:19.150Z,12.00
2019-01-20T00:32:19.287Z,12.00
2019-01-20T00:33:19.131Z,12.00
2019-01-20T00:34:19.190Z,12.00
2019-01-20T00:35:20.419Z,12.00
2019-01-20T00:36:19.098Z,12.00
2019-01-20T00:37:19.089Z,12.00
2019-01-20T00:38:19.959Z,12.00
2019-01-20T00:39:19.069Z,12.00
2019-01-20T00:40:19.082Z,12.00
2019-01-20T00:41:24.093Z,12.00
2019-01-20T00:42:20.336Z,12.00
2019-01-20T00:43:19.028Z,12.00
2019-01-20T00:44:19.051Z,12.00
2019-01-20T00:45:19.009Z,12.00
2019-01-20T00:46:18.998Z,12.00
2019-01-20T00:47:18.998Z,12.00
2019-01-20T00:48:18.976Z,12.00
2019-01-20T00:49:19.248Z,12.00
2019-01-20T00:50:19.155Z,12.00
2019-01-20T00:51:18.952Z,12.00
2019-01-20T00:52:20.905Z,12.00
2019-01-20T00:53:18.925Z,12.00
2019-01-20T00:54:18.914Z,12.00
2019-01-20T00:55:18.929Z,12.00
2019-01-20T00:56:19.226Z,12.00
2019-01-20T00:57:18.893Z,12.00
2019-01-20T00:58:18.873Z,12.00
2019-01-20T00:59:18.865Z,12.00
2019-01-20T01:00:18.868Z,12.00
2019-01-20T01:01:18.851Z,12.00
2019-01-20T01:02:19.872Z,12.00
2019-01-20T01:03:19.105Z,12.00
2019-01-20T01:04:18.815Z,12.00
2019-01-20T01:05:18.812Z,12.00
2019-01-20T01:06:18.798Z,12.00
2019-01-20T01:07:18.804Z,12.00
2019-01-20T01:08:18.842Z,12.00
2019-01-20T01:09:18.764Z,12.00
2019-01-20T01:10:18.762Z,12.00
2019-01-20T01:11:18.744Z,12.00
2019-01-20T01:12:18.735Z,12.00
2019-01-20T01:13:18.726Z,12.00
2019-01-20T01:14:18.751Z,12.00
2019-01-20T01:15:18.703Z,12.00
2019-01-20T01:16:18.977Z,12.00
2019-01-20T01:17:18.732Z,12.00
2019-01-20T01:18:18.673Z,12.00
2019-01-20T01:19:18.663Z,12.00
2019-01-20T01:20:18.699Z,12.00
2019-01-20T01:21:18.642Z,12.00
2019-01-20T01:22:18.636Z,12.00
2019-01-20T01:23:18.621Z,12.00
2019-01-20T01:24:18.614Z,12.00
2019-01-20T01:25:18.621Z,12.00
2019-01-20T01:26:18.682Z,12.00
2019-01-20T01:27:18.582Z,12.00
2019-01-20T01:28:18.875Z,12.00
2019-01-20T01:29:18.566Z,12.00
2019-01-20T01:30:18.551Z,12.00
2019-01-20T01:31:18.547Z,12.00
2019-01-20T01:32:18.566Z,12.00
2019-01-20T01:33:18.535Z,12.00
2019-01-20T01:34:18.513Z,12.00
2019-01-20T01:35:18.514Z,12.00
2019-01-20T01:36:18.493Z,12.00
2019-01-20T01:37:18.482Z,12.00
2019-01-20T01:38:18.510Z,12.00
2019-01-20T01:39:18.459Z,12.00
2019-01-20T01:40:18.725Z,12.00
2019-01-20T01:41:18.439Z,12.00
2019-01-20T01:42:18.430Z,12.00
2019-01-20T01:43:18.420Z,12.00
2019-01-20T01:44:18.486Z,12.00
2019-01-20T01:45:18.400Z,12.00
2019-01-20T01:46:18.406Z,12.00
2019-01-20T01:47:18.658Z,12.00
2019-01-20T01:48:18.368Z,12.00
2019-01-20T01:49:18.363Z,12.00
2019-01-20T01:50:18.387Z,12.00
2019-01-20T01:51:18.339Z,12.00
2019-01-20T01:52:18.335Z,12.00
2019-01-20T01:53:18.321Z,12.00
2019-01-20T01:54:18.609Z,12.00
2019-01-20T01:55:18.297Z,12.00
2019-01-20T01:56:18.321Z,12.00
2019-01-20T01:57:18.278Z,12.00
2019-01-20T01:58:18.273Z,12.00
2019-01-20T01:59:18.259Z,12.00
2019-01-20T02:00:18.250Z,12.00
2019-01-20T02:01:18.516Z,12.00
2019-01-20T02:02:18.348Z,12.00
2019-01-20T02:03:18.217Z,12.00
2019-01-20T02:04:18.209Z,12.00
2019-01-20T02:05:18.196Z,12.00
2019-01-20T02:06:18.190Z,12.00
2019-01-20T02:07:18.179Z,12.00
2019-01-20T02:08:18.481Z,8.00
2019-01-20T02:09:18.157Z,12.00
2019-01-20T02:10:18.148Z,12.00
2019-01-20T02:11:18.137Z,12.00
2019-01-20T02:12:18.126Z,12.00
2019-01-20T02:13:18.165Z,12.00
2019-01-20T02:14:18.159Z,12.00
2019-01-20T02:15:18.375Z,12.00
2019-01-20T02:16:18.875Z,12.00
2019-01-20T02:17:18.108Z,12.00
2019-01-20T02:18:18.086Z,12.00
2019-01-20T02:19:18.060Z,12.00
2019-01-20T02:20:18.087Z,12.00
2019-01-20T02:21:18.042Z,12.00
2019-01-20T02:22:18.351Z,12.00
2019-01-20T02:23:18.043Z,12.00
2019-01-20T02:24:18.005Z,12.00
2019-01-20T02:25:18.002Z,12.00
2019-01-20T02:26:18.027Z,12.00
2019-01-20T02:27:17.978Z,12.00
2019-01-20T02:28:17.971Z,12.00
2019-01-20T02:29:18.266Z,12.00
2019-01-20T02:30:17.958Z,12.00
2019-01-20T02:31:17.935Z,12.00
2019-01-20T02:32:17.960Z,12.00
2019-01-20T02:33:17.917Z,12.00
2019-01-20T02:34:17.912Z,12.00
2019-01-20T02:35:17.894Z,12.00
2019-01-20T02:36:18.162Z,12.00
2019-01-20T02:37:17.874Z,12.00
2019-01-20T02:38:18.091Z,12.00
2019-01-20T02:39:17.854Z,12.00
2019-01-20T02:40:17.843Z,12.00
2019-01-20T02:41:17.834Z,12.00
2019-01-20T02:42:17.839Z,12.00
2019-01-20T02:43:18.097Z,12.00
2019-01-20T02:44:17.839Z,12.00
2019-01-20T02:45:17.799Z,12.00
2019-01-20T02:46:17.801Z,12.00
2019-01-20T02:47:17.791Z,12.00
2019-01-20T02:48:17.763Z,12.00
2019-01-20T02:49:17.756Z,12.00
2019-01-20T02:50:18.093Z,12.00
2019-01-20T02:51:17.742Z,12.00
2019-01-20T02:52:17.722Z,12.00
2019-01-20T02:53:17.715Z,12.00
2019-01-20T02:54:17.704Z,12.00
2019-01-20T02:55:17.692Z,12.00
2019-01-20T02:56:17.909Z,12.00
2019-01-20T02:57:17.952Z,12.00
2019-01-20T02:58:17.664Z,12.00
2019-01-20T02:59:17.661Z,12.00
2019-01-20T03:01:39.953Z,12.00
2019-01-20T03:02:39.874Z,12.00
2019-01-20T03:03:39.860Z,12.00
2019-01-20T03:04:39.850Z,12.00
2019-01-20T03:05:39.847Z,12.00
2019-01-20T03:06:39.829Z,12.00
2019-01-20T03:07:40.177Z,12.00
2019-01-20T03:08:39.811Z,12.00
2019-01-20T03:09:39.805Z,12.00
2019-01-20T03:10:39.792Z,12.00
2019-01-20T03:11:39.785Z,12.00
2019-01-20T03:12:39.790Z,12.00
2019-01-20T03:13:40.091Z,12.00
2019-01-20T03:14:39.751Z,12.00
2019-01-20T03:15:39.755Z,12.00
2019-01-20T03:16:39.732Z,12.00
2019-01-20T03:17:39.718Z,12.00
2019-01-20T03:18:39.709Z,12.00
2019-01-20T03:19:39.797Z,12.00
2019-01-20T03:20:39.691Z,12.00
2019-01-20T03:21:39.680Z,12.00
2019-01-20T03:22:39.673Z,12.00
2019-01-20T03:23:39.672Z,12.00
2019-01-20T03:24:39.648Z,12.00
2019-01-20T03:25:39.962Z,12.00
2019-01-20T03:26:39.630Z,12.00
2019-01-20T03:27:39.673Z,12.00
2019-01-20T03:28:39.609Z,12.00
2019-01-20T03:29:39.609Z,12.00
2019-01-20T03:30:39.591Z,12.00
2019-01-20T03:31:39.932Z,12.00
2019-01-20T03:32:39.573Z,12.00
2019-01-20T03:33:39.599Z,12.00
2019-01-20T03:34:39.561Z,12.00
2019-01-20T03:35:39.540Z,12.00
2019-01-20T03:36:39.534Z,12.00
2019-01-20T03:37:39.723Z,12.00
2019-01-20T03:38:39.796Z,12.00
2019-01-20T03:39:39.503Z,12.00
2019-01-20T03:40:39.490Z,12.00
2019-01-20T03:41:39.479Z,12.00
2019-01-20T03:42:39.486Z,12.00
2019-01-20T03:43:39.500Z,12.00
2019-01-20T03:44:39.449Z,12.00
2019-01-20T03:45:39.725Z,12.00
2019-01-20T03:46:39.429Z,12.00
2019-01-20T03:47:39.416Z,12.00
2019-01-20T03:48:39.410Z,12.00
2019-01-20T03:49:39.446Z,12.00
2019-01-20T03:50:39.386Z,12.00
2019-01-20T03:51:39.377Z,12.00
2019-01-20T03:52:39.645Z,12.00
2019-01-20T03:53:39.359Z,12.00
2019-01-20T03:54:39.347Z,12.00
2019-01-20T03:55:39.393Z,12.00
2019-01-20T03:56:39.326Z,12.00
2019-01-20T03:57:39.316Z,12.00
2019-01-20T03:58:39.376Z,12.00
2019-01-20T03:59:39.603Z,12.00
2019-01-20T04:00:39.319Z,12.00
2019-01-20T04:01:39.324Z,12.00
2019-01-20T04:02:39.269Z,12.00
2019-01-20T04:03:39.255Z,12.00
2019-01-20T04:04:39.256Z,12.00
2019-01-20T04:05:39.245Z,12.00
2019-01-20T04:06:39.517Z,12.00
2019-01-20T04:07:39.253Z,12.00
2019-01-20T04:08:39.204Z,12.00
2019-01-20T04:09:39.197Z,12.00
2019-01-20T04:10:39.186Z,12.00
2019-01-20T04:11:39.180Z,12.00
2019-01-20T04:12:39.166Z,12.00
2019-01-20T04:13:39.507Z,12.00
2019-01-20T04:14:39.148Z,12.00
2019-01-20T04:15:39.148Z,12.00
2019-01-20T04:16:39.127Z,12.00
2019-01-20T04:17:39.117Z,12.00
2019-01-20T04:18:39.107Z,12.00
2019-01-20T04:19:39.135Z,12.00
2019-01-20T04:20:39.388Z,12.00
2019-01-20T04:21:39.074Z,12.00
2019-01-20T04:22:39.078Z,12.00
2019-01-20T04:23:39.081Z,12.00
2019-01-20T04:24:39.047Z,12.00
2019-01-20T04:25:39.077Z,12.00
2019-01-20T04:26:39.024Z,12.00
2019-01-20T04:27:39.344Z,12.00
2019-01-20T04:28:39.007Z,12.00
2019-01-20T04:29:38.994Z,12.00
2019-01-20T04:30:38.995Z,12.00
2019-01-20T04:31:39.061Z,12.00
2019-01-20T04:32:38.966Z,12.00
2019-01-20T04:33:38.955Z,12.00
2019-01-20T04:34:39.233Z,12.00
2019-01-20T04:35:38.940Z,12.00
2019-01-20T04:36:38.922Z,12.00
2019-01-20T04:37:38.953Z,12.00
2019-01-20T04:38:38.902Z,12.00
2019-01-20T04:39:38.921Z,12.00
2019-01-20T04:40:38.889Z,12.00
2019-01-20T04:41:39.184Z,12.00
2019-01-20T04:42:38.890Z,12.00
2019-01-20T04:43:38.900Z,12.00
2019-01-20T04:44:38.845Z,12.00
2019-01-20T04:45:38.841Z,12.00
2019-01-20T04:46:38.854Z,12.00
2019-01-20T04:47:38.820Z,12.00
2019-01-20T04:48:39.104Z,12.00
2019-01-20T04:49:38.843Z,12.00
2019-01-20T04:50:38.783Z,12.00
2019-01-20T04:51:38.771Z,12.00
2019-01-20T04:52:38.764Z,12.00
2019-01-20T04:53:38.772Z,12.00
2019-01-20T04:54:38.744Z,12.00
2019-01-20T04:55:40.035Z,12.00
2019-01-20T04:56:38.752Z,12.00
2019-01-20T04:57:38.716Z,12.00
2019-01-20T04:58:38.718Z,12.00
2019-01-20T04:59:38.692Z,12.00
2019-01-20T05:00:38.686Z,12.00
2019-01-20T05:01:39.001Z,12.00
2019-01-20T05:02:38.774Z,12.00
2019-01-20T05:03:38.661Z,12.00
2019-01-20T05:04:38.644Z,12.00
2019-01-20T05:05:38.632Z,12.00
2019-01-20T05:06:38.629Z,12.00
2019-01-20T05:07:38.686Z,12.00
2019-01-20T05:08:38.603Z,12.00
2019-01-20T05:09:38.610Z,12.00
2019-01-20T05:10:38.584Z,12.00
2019-01-20T05:11:38.570Z,12.00
2019-01-20T05:12:38.565Z,12.00
2019-01-20T05:13:38.889Z,12.00
2019-01-20T05:14:38.543Z,12.00
2019-01-20T05:15:38.535Z,12.00
2019-01-20T05:16:38.520Z,12.00
2019-01-20T05:17:38.529Z,12.00
2019-01-20T05:18:38.498Z,12.00
2019-01-20T05:19:38.525Z,12.00
2019-01-20T05:20:38.481Z,12.00
2019-01-20T05:21:38.475Z,12.00
2019-01-20T05:22:38.458Z,12.00
2019-01-20T05:23:38.471Z,12.00
2019-01-20T05:24:38.440Z,12.00
2019-01-20T05:25:38.772Z,12.00
2019-01-20T05:26:38.418Z,12.00
2019-01-20T05:27:38.409Z,12.00
2019-01-20T05:28:38.399Z,12.00
2019-01-20T05:29:38.389Z,12.00
2019-01-20T05:30:38.399Z,12.00
2019-01-20T05:31:38.401Z,12.00
2019-01-20T05:32:38.638Z,12.00
2019-01-20T05:33:38.352Z,12.00
2019-01-20T05:34:38.349Z,12.00
2019-01-20T05:35:38.342Z,12.00
2019-01-20T05:36:38.318Z,12.00
2019-01-20T05:37:38.353Z,12.00
2019-01-20T05:38:38.299Z,12.00
2019-01-20T05:39:38.594Z,12.00
2019-01-20T05:40:38.278Z,12.00
2019-01-20T05:41:38.300Z,12.00
2019-01-20T05:42:45.631Z,12.00
2019-01-20T05:43:39.299Z,12.00
2019-01-20T05:44:38.241Z,12.00
2019-01-20T05:45:38.228Z,12.00
2019-01-20T05:46:38.508Z,12.00
2019-01-20T05:47:38.217Z,12.00
2019-01-20T05:48:38.197Z,12.00
2019-01-20T05:49:38.265Z,12.00
2019-01-20T05:50:38.187Z,12.00
2019-01-20T05:51:38.170Z,12.00
2019-01-20T05:52:38.161Z,12.00
2019-01-20T05:53:38.454Z,12.00
2019-01-20T05:54:38.149Z,12.00
2019-01-20T05:55:38.289Z,12.00
2019-01-20T05:56:38.116Z,12.00
2019-01-20T05:57:38.106Z,12.00
2019-01-20T05:58:38.097Z,12.00
2019-01-20T05:59:38.086Z,12.00
2019-01-20T06:00:38.388Z,12.00
2019-01-20T06:01:38.141Z,12.00
2019-01-20T06:02:38.055Z,12.00
2019-01-20T06:03:38.062Z,12.00
2019-01-20T06:04:38.052Z,12.00
2019-01-20T06:05:38.040Z,12.00
2019-01-20T06:06:38.018Z,12.00
2019-01-20T06:07:38.339Z,12.00
2019-01-20T06:08:37.996Z,12.00
2019-01-20T06:09:37.988Z,12.00
2019-01-20T06:10:37.977Z,12.00
2019-01-20T06:11:37.964Z,12.00
2019-01-20T06:12:38.508Z,12.00
2019-01-20T06:13:37.987Z,12.00
2019-01-20T06:14:38.212Z,12.00
2019-01-20T06:15:37.925Z,12.00
2019-01-20T06:16:37.967Z,12.00
2019-01-20T06:17:37.909Z,12.00
2019-01-20T06:18:37.909Z,12.00
2019-01-20T06:19:38.739Z,12.00
2019-01-20T06:20:37.877Z,12.00
2019-01-20T06:21:38.145Z,12.00
2019-01-20T06:22:37.854Z,12.00
2019-01-20T06:23:37.846Z,12.00
2019-01-20T06:24:37.835Z,12.00
2019-01-20T06:25:37.864Z,12.00
2019-01-20T06:26:37.815Z,12.00
2019-01-20T06:27:37.804Z,12.00
2019-01-20T06:28:39.499Z,12.00
2019-01-20T06:29:37.789Z,12.00
2019-01-20T06:30:37.810Z,8.00
2019-01-20T06:31:37.809Z,12.00
2019-01-20T06:32:37.759Z,12.00
2019-01-20T06:33:37.746Z,12.00
2019-01-20T06:34:37.741Z,8.00
2019-01-20T06:35:38.007Z,8.00
2019-01-20T06:36:37.735Z,8.00
2019-01-20T06:37:38.033Z,8.00
2019-01-20T06:38:37.696Z,12.00
2019-01-20T06:39:37.813Z,12.00
2019-01-20T06:40:37.673Z,12.00
2019-01-20T06:41:37.665Z,12.00
2019-01-20T06:42:37.964Z,12.00
2019-01-20T06:43:37.684Z,12.00
2019-01-20T06:44:37.633Z,12.00
2019-01-20T06:45:37.638Z,12.00
2019-01-20T06:46:37.611Z,12.00
2019-01-20T06:47:37.603Z,16.00
2019-01-20T06:48:37.594Z,12.00
2019-01-20T06:49:37.917Z,12.00
2019-01-20T06:50:37.571Z,16.00
2019-01-20T06:51:37.561Z,16.00
2019-01-20T06:52:37.557Z,16.00
2019-01-20T06:53:37.546Z,16.00
2019-01-20T06:54:37.531Z,16.00
2019-01-20T06:55:37.579Z,16.00
2019-01-20T06:56:37.885Z,16.00
2019-01-20T06:57:37.520Z,20.00
2019-01-20T06:58:37.501Z,24.00
2019-01-20T06:59:37.483Z,20.00
2019-01-20T07:00:37.473Z,24.00
2019-01-20T07:01:37.506Z,28.00
2019-01-20T07:02:37.461Z,28.00
2019-01-20T07:03:37.719Z,32.00
2019-01-20T07:04:37.449Z,36.00
2019-01-20T07:05:37.423Z,44.00
2019-01-20T07:06:37.416Z,44.00
2019-01-20T07:07:37.434Z,48.00
2019-01-20T07:08:37.411Z,52.00
2019-01-20T07:09:37.381Z,60.00
2019-01-20T07:10:37.687Z,68.00
2019-01-20T07:11:37.371Z,76.00
2019-01-20T07:12:37.350Z,80.00
2019-01-20T07:13:37.428Z,88.00
2019-01-20T07:14:37.346Z,100.00
2019-01-20T07:15:37.328Z,108.00
2019-01-20T07:16:37.312Z,120.00
2019-01-20T07:17:37.585Z,132.00
2019-01-20T07:18:37.292Z,140.00
2019-01-20T07:19:37.315Z,156.00
2019-01-20T07:20:37.283Z,160.00
2019-01-20T07:21:37.317Z,172.00
2019-01-20T07:22:37.299Z,184.00
2019-01-20T07:23:37.315Z,200.00
2019-01-20T07:24:37.511Z,216.00
2019-01-20T07:25:37.263Z,228.00
2019-01-20T07:26:37.218Z,244.00
2019-01-20T07:27:37.216Z,264.00
2019-01-20T07:28:37.287Z,280.00
2019-01-20T07:29:37.184Z,296.00
2019-01-20T07:30:37.287Z,316.00
2019-01-20T07:31:37.213Z,332.00
2019-01-20T07:32:37.151Z,352.00
2019-01-20T07:33:37.169Z,372.00
2019-01-20T07:34:37.135Z,392.00
2019-01-20T07:35:37.126Z,416.00
2019-01-20T07:36:37.116Z,436.00
2019-01-20T07:37:38.181Z,456.00
2019-01-20T07:38:37.105Z,472.00
2019-01-20T07:39:37.266Z,496.00
2019-01-20T07:40:37.127Z,516.00
2019-01-20T07:41:37.087Z,536.00
2019-01-20T07:42:37.048Z,556.00
2019-01-20T07:43:37.465Z,576.00
2019-01-20T07:44:37.082Z,600.00
2019-01-20T07:45:37.988Z,620.00
2019-01-20T07:46:37.011Z,636.00
2019-01-20T07:47:37.004Z,660.00
2019-01-20T07:48:36.989Z,680.00
2019-01-20T07:49:37.856Z,696.00
2019-01-20T07:50:37.970Z,720.00
2019-01-20T07:51:36.957Z,740.00
2019-01-20T07:52:36.985Z,760.00
2019-01-20T07:53:36.943Z,780.00
2019-01-20T07:54:36.943Z,800.00
2019-01-20T07:55:37.258Z,820.00
2019-01-20T07:56:36.919Z,840.00
2019-01-20T07:57:36.896Z,860.00
2019-01-20T07:58:36.888Z,880.00
2019-01-20T07:59:36.879Z,900.00
2019-01-20T08:00:36.867Z,920.00
2019-01-20T08:01:36.899Z,940.00
2019-01-20T08:02:36.873Z,956.00
2019-01-20T08:03:36.836Z,972.00
2019-01-20T08:04:36.828Z,992.00
2019-01-20T08:05:36.815Z,1012.00
2019-01-20T08:06:37.484Z,1028.00
2019-01-20T08:07:37.237Z,1044.00
2019-01-20T08:08:36.799Z,1060.00
2019-01-20T08:09:36.777Z,1080.00
2019-01-20T08:10:36.767Z,1096.00
2019-01-20T08:11:36.800Z,1112.00
2019-01-20T08:12:36.744Z,1128.00
2019-01-20T08:13:36.781Z,1148.00
2019-01-20T08:14:37.946Z,1160.00
2019-01-20T08:15:36.720Z,1180.00
2019-01-20T08:16:36.704Z,1196.00
2019-01-20T08:17:36.703Z,1216.00
2019-01-20T08:18:36.684Z,1232.00
2019-01-20T08:19:36.780Z,1248.00
2019-01-20T08:20:36.679Z,1260.00
2019-01-20T08:21:36.942Z,1280.00
2019-01-20T08:22:36.644Z,1288.00
2019-01-20T08:23:36.653Z,1308.00
2019-01-20T08:24:36.686Z,1320.00
2019-01-20T08:25:36.707Z,1340.00
2019-01-20T08:26:36.604Z,1360.00
2019-01-20T08:27:36.597Z,1376.00
2019-01-20T08:28:36.893Z,1392.00
2019-01-20T08:29:36.582Z,1412.00
2019-01-20T08:30:36.564Z,1424.00
2019-01-20T08:31:36.596Z,1444.00
2019-01-20T08:32:36.550Z,1464.00
2019-01-20T08:33:36.546Z,1472.00
2019-01-20T08:34:36.522Z,1488.00
2019-01-20T08:35:36.828Z,1500.00
2019-01-20T08:36:36.524Z,1524.00
2019-01-20T08:37:36.554Z,1532.00
2019-01-20T08:38:36.506Z,1548.00
2019-01-20T08:39:36.571Z,1564.00
2019-01-20T08:40:36.466Z,1576.00
2019-01-20T08:41:36.459Z,1592.00
2019-01-20T08:42:36.910Z,1608.00
2019-01-20T08:43:36.515Z,1628.00
2019-01-20T08:44:36.764Z,1640.00
2019-01-20T08:45:36.414Z,1652.00
2019-01-20T08:46:36.403Z,1668.00
2019-01-20T08:47:37.956Z,1680.00
2019-01-20T08:48:36.389Z,1700.00
2019-01-20T08:49:36.411Z,1716.00
2019-01-20T08:50:36.366Z,1740.00
2019-01-20T08:51:36.382Z,1760.00
2019-01-20T08:52:36.342Z,1788.00
2019-01-20T08:53:36.415Z,1812.00
2019-01-20T08:54:36.329Z,1836.00
2019-01-20T08:55:36.679Z,1856.00
2019-01-20T08:56:36.307Z,1884.00
2019-01-20T08:57:36.412Z,1904.00
2019-01-20T08:58:36.286Z,1928.00
2019-01-20T08:59:36.338Z,1956.00
2019-01-20T09:00:36.272Z,1972.00
2019-01-20T09:01:36.758Z,2000.00
2019-01-20T09:02:36.243Z,2032.00
2019-01-20T09:03:36.236Z,2060.00
2019-01-20T09:04:36.297Z,2104.00
2019-01-20T09:05:36.216Z,2136.00
2019-01-20T09:06:36.202Z,2180.00
2019-01-20T09:07:36.226Z,2216.00
2019-01-20T09:08:36.193Z,2256.00
2019-01-20T09:09:36.170Z,2288.00
2019-01-20T09:10:36.174Z,2320.00
2019-01-20T09:11:36.153Z,2352.00
2019-01-20T09:12:36.148Z,2376.00
2019-01-20T09:13:39.832Z,2392.00
2019-01-20T09:14:36.141Z,2424.00
2019-01-20T09:15:36.120Z,2448.00
2019-01-20T09:16:36.118Z,2484.00
2019-01-20T09:17:36.097Z,2512.00
2019-01-20T09:18:36.085Z,2540.00
2019-01-20T09:19:36.411Z,2568.00
2019-01-20T09:20:36.109Z,2588.00
2019-01-20T09:21:36.054Z,2620.00
2019-01-20T09:22:36.983Z,2644.00
2019-01-20T09:23:36.030Z,2668.00
2019-01-20T09:24:36.112Z,2700.00
2019-01-20T09:25:36.069Z,2732.00
2019-01-20T09:26:36.289Z,2756.00
2019-01-20T09:27:35.995Z,2784.00
2019-01-20T09:28:35.980Z,2800.00
2019-01-20T09:29:35.969Z,2824.00
2019-01-20T09:30:35.958Z,2828.00
2019-01-20T09:31:36.002Z,2864.00
2019-01-20T09:32:36.026Z,2880.00
2019-01-20T09:33:36.393Z,2892.00
2019-01-20T09:34:35.954Z,2908.00
2019-01-20T09:35:35.918Z,2932.00
2019-01-20T09:36:36.465Z,2952.00
2019-01-20T09:37:36.752Z,2976.00
2019-01-20T09:38:35.902Z,2988.00
2019-01-20T09:39:35.868Z,3012.00
2019-01-20T09:40:36.180Z,3032.00
2019-01-20T09:41:36.425Z,3076.00
2019-01-20T09:42:37.464Z,3084.00
2019-01-20T09:43:35.871Z,3140.00
2019-01-20T09:44:35.817Z,3184.00
2019-01-20T09:45:35.867Z,3216.00
2019-01-20T09:46:35.804Z,3252.00
2019-01-20T09:47:36.097Z,3296.00
2019-01-20T09:48:35.789Z,3332.00
2019-01-20T09:49:36.488Z,3372.00
2019-01-20T09:50:35.762Z,3396.00
2019-01-20T09:51:35.806Z,3444.00
2019-01-20T09:52:35.741Z,3480.00
2019-01-20T09:53:35.734Z,3520.00
2019-01-20T09:54:38.419Z,3532.00
2019-01-20T09:55:35.905Z,3584.00
2019-01-20T09:56:35.702Z,3612.00
2019-01-20T09:57:35.696Z,3640.00
2019-01-20T09:58:35.675Z,3664.00
2019-01-20T09:59:35.707Z,3692.00
2019-01-20T10:00:35.693Z,3724.00
2019-01-20T10:01:35.720Z,3752.00
2019-01-20T10:02:35.687Z,3772.00
2019-01-20T10:03:35.686Z,3760.00
2019-01-20T10:04:35.625Z,3824.00
2019-01-20T10:05:35.605Z,3824.00
2019-01-20T10:06:35.597Z,3860.00
2019-01-20T10:07:35.633Z,3872.00
2019-01-20T10:08:35.581Z,3876.00
2019-01-20T10:09:35.568Z,3916.00
2019-01-20T10:10:35.596Z,3932.00
2019-01-20T10:11:35.545Z,3952.00
2019-01-20T10:12:35.533Z,3980.00
2019-01-20T10:13:36.666Z,4004.00
2019-01-20T10:14:35.630Z,4028.00
2019-01-20T10:15:35.512Z,4092.00
2019-01-20T10:16:35.496Z,4112.00
2019-01-20T10:17:35.484Z,4136.00
2019-01-20T10:18:35.541Z,4164.00
2019-01-20T10:19:35.494Z,4184.00
2019-01-20T10:20:35.453Z,4240.00
2019-01-20T10:21:35.441Z,4268.00
2019-01-20T10:22:35.440Z,4312.00
2019-01-20T10:23:35.429Z,4400.00
2019-01-20T10:24:35.410Z,4576.00
2019-01-20T10:25:35.557Z,4680.00
2019-01-20T10:26:37.896Z,4612.00
2019-01-20T10:27:36.396Z,4532.00
2019-01-20T10:28:35.377Z,4492.00
2019-01-20T10:29:35.382Z,4512.00
2019-01-20T10:30:35.349Z,4556.00
2019-01-20T10:31:35.739Z,4560.00
2019-01-20T10:32:35.332Z,4596.00
2019-01-20T10:33:35.720Z,4584.00
2019-01-20T10:34:35.325Z,4584.00
2019-01-20T10:35:35.301Z,4608.00
2019-01-20T10:36:35.292Z,4596.00
2019-01-20T10:37:35.311Z,4612.00
2019-01-20T10:38:37.208Z,4620.00
2019-01-20T10:39:35.574Z,4620.00
2019-01-20T10:40:35.259Z,4600.00
2019-01-20T10:41:35.240Z,4608.00
2019-01-20T10:42:35.227Z,4612.00
2019-01-20T10:43:35.244Z,4592.00
2019-01-20T10:44:35.207Z,4604.00
2019-01-20T10:45:35.681Z,4604.00
2019-01-20T10:46:35.200Z,4604.00
2019-01-20T10:47:35.202Z,4632.00
2019-01-20T10:48:35.170Z,4612.00
2019-01-20T10:49:35.455Z,4604.00
2019-01-20T10:50:35.152Z,4596.00
2019-01-20T10:51:35.589Z,4588.00
2019-01-20T10:52:35.136Z,4580.00
2019-01-20T10:53:35.115Z,4572.00
2019-01-20T10:54:35.105Z,4556.00
2019-01-20T10:55:35.200Z,4596.00
2019-01-20T10:56:35.103Z,4576.00
2019-01-20T10:57:35.079Z,4564.00
2019-01-20T10:58:35.383Z,4552.00
2019-01-20T10:59:35.942Z,4544.00
2019-01-20T11:00:36.414Z,4556.00
2019-01-20T11:01:35.078Z,4536.00
2019-01-20T11:02:36.145Z,4532.00
2019-01-20T11:03:35.018Z,4476.00
2019-01-20T11:04:35.049Z,4516.00
2019-01-20T11:05:35.433Z,4504.00
2019-01-20T11:06:34.984Z,4500.00
2019-01-20T11:07:35.056Z,4508.00
2019-01-20T11:08:34.978Z,4500.00
2019-01-20T11:09:34.999Z,4488.00
2019-01-20T11:10:35.949Z,4472.00
2019-01-20T11:11:34.946Z,4452.00
2019-01-20T11:12:35.245Z,4420.00
2019-01-20T11:13:34.947Z,4480.00
2019-01-20T11:14:34.901Z,4484.00
2019-01-20T11:15:34.909Z,4492.00
2019-01-20T11:16:34.881Z,4488.00
2019-01-20T11:17:34.873Z,4492.00
2019-01-20T11:18:34.879Z,4464.00
2019-01-20T11:19:35.267Z,4444.00
2019-01-20T11:20:34.842Z,4496.00
2019-01-20T11:21:34.835Z,4532.00
2019-01-20T11:22:34.832Z,4536.00
2019-01-20T11:23:34.857Z,4524.00
2019-01-20T11:24:34.800Z,4588.00
2019-01-20T11:25:34.828Z,4596.00
2019-01-20T11:26:35.241Z,4664.00
2019-01-20T11:27:34.768Z,4688.00
2019-01-20T11:28:34.757Z,4624.00
2019-01-20T11:29:34.748Z,4676.00
2019-01-20T11:30:34.735Z,4676.00
2019-01-20T11:31:34.777Z,4680.00
2019-01-20T11:32:34.751Z,4668.00
2019-01-20T11:33:34.988Z,4696.00
2019-01-20T11:34:34.695Z,4740.00
2019-01-20T11:35:34.688Z,4728.00
2019-01-20T11:36:34.736Z,4780.00
2019-01-20T11:37:34.770Z,4852.00
2019-01-20T11:38:34.681Z,4920.00
2019-01-20T11:39:34.686Z,4944.00
2019-01-20T11:40:35.001Z,4956.00
2019-01-20T11:41:34.637Z,4928.00
2019-01-20T11:42:34.747Z,4984.00
2019-01-20T11:43:34.704Z,5016.00
2019-01-20T11:44:34.740Z,5116.00
2019-01-20T11:45:34.639Z,5232.00
2019-01-20T11:46:34.572Z,5240.00
2019-01-20T11:47:41.775Z,5144.00
2019-01-20T11:48:35.599Z,5168.00
2019-01-20T11:49:34.544Z,5248.00
2019-01-20T11:50:34.535Z,5164.00
2019-01-20T11:51:35.430Z,5356.00
2019-01-20T11:52:35.454Z,5404.00
2019-01-20T11:53:34.994Z,5572.00
2019-01-20T11:54:34.523Z,5948.00
2019-01-20T11:55:34.509Z,6420.00
2019-01-20T11:56:34.472Z,7220.00
2019-01-20T11:57:34.464Z,8044.00
2019-01-20T11:58:34.451Z,35808.00
2019-01-20T11:59:34.446Z,83072.00
2019-01-20T12:00:34.836Z,93088.00
2019-01-20T12:01:34.417Z,96064.00
2019-01-20T12:02:34.405Z,95616.00
2019-01-20T12:03:34.400Z,93536.00
2019-01-20T12:04:34.394Z,98208.00
2019-01-20T12:05:34.374Z,87328.00
2019-01-20T12:06:34.401Z,86528.00
2019-01-20T12:07:34.355Z,89504.00
2019-01-20T12:08:34.353Z,87840.00
2019-01-20T12:09:34.343Z,94304.00
2019-01-20T12:10:34.323Z,95392.00
2019-01-20T12:11:34.323Z,97600.00
2019-01-20T12:12:34.333Z,93920.00
2019-01-20T12:13:34.424Z,92768.00
2019-01-20T12:14:34.279Z,98464.00
2019-01-20T12:15:34.473Z,97888.00
2019-01-20T12:16:34.263Z,97152.00
2019-01-20T12:17:34.251Z,97696.00
2019-01-20T12:18:34.291Z,96672.00
2019-01-20T12:19:34.532Z,96864.00
2019-01-20T12:20:34.219Z,94400.00
2019-01-20T12:21:34.218Z,95552.00
2019-01-20T12:22:34.202Z,95872.00
2019-01-20T12:23:34.195Z,89568.00
2019-01-20T12:24:34.205Z,82912.00
2019-01-20T12:25:34.173Z,76128.00
2019-01-20T12:26:34.437Z,76288.00
2019-01-20T12:27:34.147Z,81888.00
2019-01-20T12:28:34.151Z,87552.00
2019-01-20T12:29:34.124Z,94240.00
2019-01-20T12:30:34.197Z,93088.00
2019-01-20T12:31:34.110Z,95328.00
2019-01-20T12:32:34.930Z,97216.00
2019-01-20T12:33:34.524Z,96992.00